createdAt,value
2023-05-02T00:01:32.946Z,96139.22
2023-05-02T00:11:35.409Z,96140.19
2023-05-02T00:21:39.096Z,96132.72
2023-05-02T00:31:41.941Z,96132.78
2023-05-02T00:41:45.794Z,96130.13
2023-05-02T00:51:48.241Z,96136.03
2023-05-02T01:01:56.263Z,96133.78
2023-05-02T01:12:03.946Z,96134.50
2023-05-02T01:22:09.863Z,96159.75
2023-05-02T01:32:16.035Z,96149.59
2023-05-02T01:42:19.101Z,96152.38
2023-05-02T01:52:23.964Z,96154.97
2023-05-02T02:02:27.910Z,96164.88
2023-05-02T02:12:36.667Z,96160.81
2023-05-02T02:22:40.310Z,96161.03
2023-05-02T02:32:44.044Z,96173.66
2023-05-02T02:42:49.229Z,96182.03
2023-05-02T02:52:56.544Z,96187.63
2023-05-02T03:02:59.116Z,96190.16
2023-05-02T03:13:02.878Z,96207.81
2023-05-02T03:23:05.319Z,96218.88
2023-05-02T03:33:09.766Z,96235.19
2023-05-02T03:43:12.590Z,96248.69
2023-05-02T03:53:17.106Z,96257.28
2023-05-02T04:03:19.582Z,96267.13
2023-05-02T04:13:23.367Z,96279.94
2023-05-02T04:23:25.794Z,96291.47
2023-05-02T04:33:30.154Z,96300.88
2023-05-02T04:43:32.603Z,96307.25
2023-05-02T04:53:36.417Z,96325.41
2023-05-02T05:03:38.975Z,96323.22
2023-05-02T05:13:43.148Z,96333.56
2023-05-02T05:23:46.332Z,96329.75
2023-05-02T05:33:50.224Z,96353.22
2023-05-02T05:43:52.616Z,96368.31
2023-05-02T05:53:56.382Z,96379.84
2023-05-02T06:03:59.055Z,96393.13
2023-05-02T06:14:02.809Z,96400.91
2023-05-02T06:24:05.680Z,96425.09
2023-05-02T06:34:09.481Z,96430.38
2023-05-02T06:44:11.890Z,96439.00
2023-05-02T06:54:15.876Z,96449.59
2023-05-02T07:04:18.318Z,96465.78
2023-05-02T07:14:22.234Z,96463.03
2023-05-02T07:24:24.634Z,96473.41
2023-05-02T07:34:28.397Z,96482.19
2023-05-02T07:44:30.845Z,96486.69
2023-05-02T07:54:35.492Z,96484.25
2023-05-02T08:04:37.976Z,96498.63
2023-05-02T08:14:41.738Z,96509.00
2023-05-02T08:24:44.103Z,96524.47
2023-05-02T08:34:47.842Z,96523.03
2023-05-02T08:44:50.320Z,96529.63
2023-05-02T08:54:54.526Z,96533.53
2023-05-02T09:04:59.150Z,96542.09
2023-05-02T09:15:13.511Z,96556.22
2023-05-02T09:25:16.070Z,96554.66
2023-05-02T09:35:23.724Z,96556.16
2023-05-02T09:45:26.854Z,96552.56
2023-05-02T09:55:31.079Z,96554.66
2023-05-02T10:05:34.071Z,96560.94
2023-05-02T10:15:38.646Z,96555.94
2023-05-02T10:25:41.094Z,96558.28
2023-05-02T10:35:46.914Z,96551.59
2023-05-02T10:45:49.368Z,96548.94
2023-05-02T10:56:10.835Z,96550.63
2023-05-02T11:06:14.644Z,96544.97
2023-05-02T11:16:17.447Z,96547.63
2023-05-02T11:26:26.087Z,96551.28
2023-05-02T11:36:29.686Z,96531.59
2023-05-02T11:46:33.740Z,96525.63
2023-05-02T11:56:36.247Z,96531.94
2023-05-02T12:06:40.142Z,96532.97
2023-05-02T12:16:42.877Z,96525.91
2023-05-02T12:26:47.249Z,96530.50
2023-05-02T12:36:49.692Z,96522.97
2023-05-02T12:47:02.548Z,96526.84
2023-05-02T12:57:05.623Z,96531.06
2023-05-02T13:07:09.403Z,96533.94
2023-05-02T13:17:12.042Z,96527.31
2023-05-02T13:27:18.347Z,96527.00
2023-05-02T13:37:20.794Z,96520.84
2023-05-02T13:47:24.647Z,96529.41
2023-05-02T13:57:27.106Z,96526.47
2023-05-02T14:07:30.906Z,96525.31
2023-05-02T14:17:33.451Z,96511.13
2023-05-02T14:27:37.190Z,96522.91
2023-05-02T14:37:39.693Z,96525.28
2023-05-02T14:47:43.724Z,96526.63
2023-05-02T14:57:46.244Z,96539.44
2023-05-02T15:07:50.086Z,96534.56
2023-05-02T15:17:52.955Z,96547.25
2023-05-02T15:27:56.883Z,96537.72
2023-05-02T15:37:59.735Z,96542.13
2023-05-02T15:48:03.497Z,96551.66
2023-05-02T15:58:06.173Z,96554.03
2023-05-02T16:08:09.976Z,96563.78
2023-05-02T16:18:12.586Z,96560.53
2023-05-02T16:28:16.418Z,96562.16
2023-05-02T16:38:19.200Z,96567.28
2023-05-02T16:48:23.234Z,96568.38
2023-05-02T16:58:25.742Z,96576.19
2023-05-02T17:08:30.415Z,96584.03
2023-05-02T17:18:34.426Z,96583.41
2023-05-02T17:28:39.617Z,96586.03
2023-05-02T17:38:42.042Z,96593.78
2023-05-02T17:48:46.096Z,96604.19
2023-05-02T17:58:48.607Z,96613.03
2023-05-02T18:08:52.539Z,96622.44
2023-05-02T18:18:55.064Z,96638.84
2023-05-02T18:28:58.894Z,96650.44
2023-05-02T18:39:01.508Z,96665.25
2023-05-02T18:49:05.493Z,96672.09
2023-05-02T18:59:08.237Z,96671.31
2023-05-02T19:09:13.601Z,96674.97
2023-05-02T19:19:17.464Z,96687.34
2023-05-02T19:29:21.271Z,96693.38
2023-05-02T19:39:23.738Z,96698.72
2023-05-02T19:49:27.677Z,96726.84
2023-05-02T19:59:30.320Z,96724.22
2023-05-02T20:09:34.381Z,96740.19
2023-05-02T20:19:36.835Z,96743.94
2023-05-02T20:29:40.735Z,96753.78
2023-05-02T20:39:43.377Z,96749.47
2023-05-02T20:49:49.170Z,96756.63
2023-05-02T20:59:51.927Z,96751.50
2023-05-02T21:09:59.920Z,96753.00
2023-05-02T21:20:03.081Z,96749.28
2023-05-02T21:30:08.001Z,96751.75
2023-05-02T21:40:11.193Z,96756.56
2023-05-02T21:50:14.989Z,96750.59
2023-05-02T22:00:17.576Z,96746.28
2023-05-02T22:10:21.467Z,96757.31
2023-05-02T22:20:24.777Z,96761.28
2023-05-02T22:30:28.592Z,96765.38
2023-05-02T22:40:31.548Z,96774.22
2023-05-02T22:50:35.167Z,96775.84
2023-05-02T23:00:39.041Z,96766.16
2023-05-02T23:10:41.557Z,96764.72
2023-05-02T23:20:45.372Z,96762.41
2023-05-02T23:30:48.079Z,96770.19
2023-05-02T23:40:52.543Z,96769.00
2023-05-02T23:50:55.074Z,96766.94
